Time;durP1;ratioP1;P1;durP2;ratioP2;P2;SDS_P1;SDS_P2;PMS_P1;PMS_P2;Temp;Humidity;BMP_temperature;BMP_pressure;BME280_temperature;BME280_humidity;BME280_pressure;Samples;Min_cycle;Max_cycle;Signal;HPM_P1;HPM_P2
2023/01/06 00:02:35;;;;;;;2.30;2.20;;;;;;;;;;6278814;28;20296;-80
2023/01/06 00:05:40;;;;;;;2.33;2.00;;;;;;;;;;6260478;28;20595;-80
2023/01/06 00:08:47;;;;;;;3.50;2.30;;;;;;;;;;6260553;28;20269;-80
2023/01/06 00:11:52;;;;;;;2.40;2.20;;;;;;;;;;6243339;28;20274;-80
2023/01/06 00:14:58;;;;;;;2.27;2.07;;;;;;;;;;6260925;28;20441;-80
2023/01/06 00:18:03;;;;;;;2.30;2.20;;;;;;;;;;6260368;28;20269;-79
2023/01/06 00:21:08;;;;;;;2.13;1.83;;;;;;;;;;6260329;28;20457;-79
2023/01/06 00:24:15;;;;;;;2.33;2.03;;;;;;;;;;6259201;28;20293;-78
2023/01/06 00:27:20;;;;;;;1.97;1.87;;;;;;;;;;6260250;28;20268;-79
2023/01/06 00:30:25;;;;;;;2.03;1.93;;;;;;;;;;6275357;28;20268;-79
2023/01/06 00:33:31;;;;;;;4.57;2.17;;;;;;;;;;6260316;28;20276;-79
2023/01/06 00:36:36;;;;;;;4.63;1.77;;;;;;;;;;6258910;28;20272;-79
2023/01/06 00:39:43;;;;;;;2.30;1.97;;;;;;;;;;6260226;28;20269;-80
2023/01/06 00:42:49;;;;;;;2.27;2.10;;;;;;;;;;6258779;28;20313;-79
2023/01/06 00:45:54;;;;;;;2.20;2.00;;;;;;;;;;6259892;28;20276;-80
2023/01/06 00:49:00;;;;;;;6.00;2.33;;;;;;;;;;6258856;28;20268;-79
2023/01/06 00:52:11;;;;;;;2.57;1.90;;;;;;;;;;6260257;28;20281;-79
2023/01/06 00:55:18;;;;;;;3.03;2.20;;;;;;;;;;6258830;28;20268;-79
2023/01/06 00:58:23;;;;;;;3.73;2.03;;;;;;;;;;6260553;28;20268;-79
2023/01/06 01:01:28;;;;;;;2.83;1.93;;;;;;;;;;6259660;28;20553;-79
2023/01/06 01:04:35;;;;;;;2.27;2.07;;;;;;;;;;6258486;28;20299;-79
2023/01/06 01:07:40;;;;;;;2.17;2.00;;;;;;;;;;6258341;28;20297;-79
2023/01/06 01:10:47;;;;;;;3.43;2.00;;;;;;;;;;6258572;28;20278;-78
2023/01/06 01:13:52;;;;;;;2.13;2.00;;;;;;;;;;6266364;28;20272;-79
2023/01/06 01:16:58;;;;;;;3.33;1.90;;;;;;;;;;6282957;28;20269;-79
2023/01/06 01:20:03;;;;;;;2.20;2.10;;;;;;;;;;6288579;28;20263;-79
2023/01/06 01:23:13;;;;;;;5.97;2.17;;;;;;;;;;6288161;28;20284;-80
2023/01/06 01:26:19;;;;;;;5.73;2.00;;;;;;;;;;6288506;28;20273;-80
2023/01/06 01:29:24;;;;;;;1.80;1.73;;;;;;;;;;6271647;28;20263;-78
2023/01/06 01:32:30;;;;;;;4.33;1.70;;;;;;;;;;6271599;28;20457;-79
2023/01/06 01:35:35;;;;;;;3.10;2.10;;;;;;;;;;6292672;28;20268;-79
2023/01/06 01:38:40;;;;;;;1.77;1.70;;;;;;;;;;6297637;28;20285;-79
2023/01/06 01:41:47;;;;;;;4.60;2.80;;;;;;;;;;6297964;28;20365;-79
2023/01/06 01:44:58;;;;;;;1.93;1.83;;;;;;;;;;6292890;28;20600;-78
2023/01/06 01:48:06;;;;;;;1.80;1.70;;;;;;;;;;6289052;28;20273;-79
2023/01/06 01:51:16;;;;;;;4.00;1.73;;;;;;;;;;6288503;28;20267;-79
2023/01/06 01:54:27;;;;;;;1.60;1.50;;;;;;;;;;6287478;28;20556;-79
2023/01/06 01:57:37;;;;;;;3.03;2.00;;;;;;;;;;6287826;28;20272;-80
2023/01/06 02:00:44;;;;;;;2.93;1.60;;;;;;;;;;6270241;28;20285;-80
2023/01/06 02:03:51;;;;;;;2.50;1.70;;;;;;;;;;6282135;23;20490;-86
2023/01/06 02:07:00;;;;;;;1.83;1.73;;;;;;;;;;6217038;28;20261;-87
2023/01/06 02:10:11;;;;;;;2.37;1.87;;;;;;;;;;6221978;28;20277;-87
2023/01/06 02:13:20;;;;;;;3.03;1.70;;;;;;;;;;6219015;28;20271;-87
2023/01/06 02:16:30;;;;;;;1.60;1.60;;;;;;;;;;6223306;28;20263;-87
2023/01/06 02:20:07;;;;;;;2.40;1.60;;;;;;;;;;6241535;28;20466;-88
2023/01/06 02:23:39;;;;;;;1.97;1.80;;;;;;;;;;6236575;28;20294;-88
2023/01/06 02:27:03;;;;;;;2.63;1.70;;;;;;;;;;6220739;28;20262;-87
2023/01/06 02:30:39;;;;;;;2.30;2.00;;;;;;;;;;6219713;28;20238;-86
2023/01/06 02:33:56;;;;;;;2.17;2.03;;;;;;;;;;6206127;28;20229;-84
2023/01/06 02:37:08;;;;;;;2.80;1.90;;;;;;;;;;6216789;28;20235;-87
2023/01/06 02:40:25;;;;;;;3.77;1.80;;;;;;;;;;6230488;28;20267;-88
2023/01/06 02:43:44;;;;;;;1.83;1.77;;;;;;;;;;6253675;28;20331;-86
2023/01/06 02:47:04;;;;;;;4.07;1.83;;;;;;;;;;6253277;28;20231;-87
2023/01/06 02:50:22;;;;;;;1.70;1.60;;;;;;;;;;6241490;28;20274;-87
2023/01/06 02:53:36;;;;;;;4.20;2.00;;;;;;;;;;6241465;28;20271;-86
2023/01/06 02:56:47;;;;;;;2.27;1.97;;;;;;;;;;6223487;28;20275;-86
2023/01/06 03:00:04;;;;;;;2.40;1.80;;;;;;;;;;6241379;28;20263;-87
2023/01/06 03:03:17;;;;;;;1.90;1.80;;;;;;;;;;6208865;28;20599;-87
2023/01/06 03:06:28;;;;;;;2.43;1.87;;;;;;;;;;6223717;28;20276;-86
2023/01/06 03:09:38;;;;;;;2.90;1.97;;;;;;;;;;6223013;28;20278;-87
2023/01/06 03:12:51;;;;;;;1.80;1.70;;;;;;;;;;6230959;28;20226;-87
2023/01/06 03:15:58;;;;;;;1.60;1.60;;;;;;;;;;6216397;28;20474;-87
2023/01/06 03:19:06;;;;;;;1.80;1.70;;;;;;;;;;6215644;28;20274;-87
2023/01/06 03:22:15;;;;;;;5.30;1.70;;;;;;;;;;6181777;28;20300;-87
2023/01/06 03:25:22;;;;;;;1.70;1.60;;;;;;;;;;6214116;28;20300;-87
2023/01/06 03:28:28;;;;;;;3.57;1.90;;;;;;;;;;6213557;28;20276;-87
2023/01/06 03:31:40;;;;;;;2.13;1.93;;;;;;;;;;6196556;28;20311;-87
2023/01/06 03:34:58;;;;;;;2.13;1.93;;;;;;;;;;6196154;28;20277;-88
2023/01/06 03:38:14;;;;;;;2.30;1.80;;;;;;;;;;6196611;28;20280;-88
2023/01/06 03:43:10;;;;;;;3.17;1.90;;;;;;;;;;6180927;28;20260;-87
2023/01/06 03:44:57;;;;;;;2.10;2.00;;;;;;;;;;6198775;28;20291;-87
2023/01/06 03:48:09;;;;;;;3.07;1.77;;;;;;;;;;6212124;28;20305;-87
2023/01/06 03:51:25;;;;;;;2.80;1.90;;;;;;;;;;6196602;28;20280;-88
2023/01/06 03:54:40;;;;;;;2.37;2.17;;;;;;;;;;6193391;28;20280;-86
2023/01/06 03:57:49;;;;;;;1.83;1.70;;;;;;;;;;6188368;28;20274;-87
2023/01/06 04:00:56;;;;;;;1.70;1.70;;;;;;;;;;6182331;28;20283;-86
2023/01/06 04:04:02;;;;;;;2.30;2.10;;;;;;;;;;6194020;28;20300;-85
2023/01/06 04:07:12;;;;;;;2.30;1.90;;;;;;;;;;6180715;28;20280;-86
2023/01/06 04:10:24;;;;;;;2.83;1.90;;;;;;;;;;6205590;28;20280;-86
2023/01/06 04:13:34;;;;;;;1.90;1.63;;;;;;;;;;6196984;28;20276;-87
2023/01/06 04:16:43;;;;;;;2.27;2.17;;;;;;;;;;6176385;28;20284;-87
2023/01/06 04:19:52;;;;;;;3.03;2.10;;;;;;;;;;6211568;28;20275;-87
2023/01/06 04:22:58;;;;;;;6.23;2.37;;;;;;;;;;6164535;28;20591;-87
2023/01/06 04:26:14;;;;;;;2.20;2.00;;;;;;;;;;6204809;28;20472;-88
2023/01/06 04:29:27;;;;;;;4.53;1.80;;;;;;;;;;6174008;28;20269;-86
2023/01/06 04:32:34;;;;;;;2.10;2.00;;;;;;;;;;6211458;28;20278;-87
2023/01/06 04:35:45;;;;;;;2.80;1.80;;;;;;;;;;6175866;28;20280;-88
2023/01/06 04:38:54;;;;;;;2.10;1.77;;;;;;;;;;6179859;28;20271;-86
2023/01/06 04:42:03;;;;;;;2.83;2.00;;;;;;;;;;6179135;28;20276;-87
2023/01/06 04:45:10;;;;;;;1.40;1.40;;;;;;;;;;6195294;28;20310;-87
2023/01/06 04:48:16;;;;;;;1.70;1.60;;;;;;;;;;6221237;28;20282;-87
2023/01/06 04:51:22;;;;;;;1.70;1.70;;;;;;;;;;6211793;28;20271;-87
2023/01/06 04:54:28;;;;;;;4.40;1.77;;;;;;;;;;6199589;28;20280;-87
2023/01/06 04:57:36;;;;;;;2.63;1.70;;;;;;;;;;6216403;28;20271;-87
2023/01/06 05:00:44;;;;;;;1.87;1.77;;;;;;;;;;6200553;28;20280;-87
2023/01/06 05:03:51;;;;;;;1.90;1.80;;;;;;;;;;6230395;28;20283;-86
2023/01/06 05:06:56;;;;;;;1.70;1.70;;;;;;;;;;6188411;28;20303;-87
2023/01/06 05:10:08;;;;;;;2.03;1.70;;;;;;;;;;6200927;28;20268;-87
2023/01/06 05:13:16;;;;;;;4.43;2.00;;;;;;;;;;6184073;28;20265;-87
2023/01/06 05:16:25;;;;;;;2.10;2.00;;;;;;;;;;6169003;28;20279;-87
2023/01/06 05:19:32;;;;;;;1.73;1.63;;;;;;;;;;6197342;28;20247;-87
2023/01/06 05:22:39;;;;;;;2.17;1.70;;;;;;;;;;6199766;28;20283;-87
2023/01/06 05:25:44;;;;;;;2.53;1.43;;;;;;;;;;6183647;28;20596;-86
2023/01/06 05:28:52;;;;;;;2.00;1.80;;;;;;;;;;6182939;28;20564;-87
2023/01/06 05:31:59;;;;;;;3.00;1.87;;;;;;;;;;6199491;28;20283;-87
2023/01/06 05:35:06;;;;;;;2.03;2.00;;;;;;;;;;6199021;28;20276;-86
2023/01/06 05:38:14;;;;;;;1.70;1.70;;;;;;;;;;6199678;28;20462;-87
2023/01/06 05:41:20;;;;;;;1.67;1.57;;;;;;;;;;6183301;28;20466;-87
2023/01/06 05:44:27;;;;;;;2.13;2.03;;;;;;;;;;6198110;28;20280;-87
2023/01/06 05:47:34;;;;;;;3.13;2.33;;;;;;;;;;6182586;28;20469;-86
2023/01/06 05:50:40;;;;;;;4.97;1.93;;;;;;;;;;6198644;28;20275;-86
2023/01/06 05:53:48;;;;;;;1.60;1.60;;;;;;;;;;6183423;28;20275;-87
2023/01/06 05:56:55;;;;;;;2.07;1.80;;;;;;;;;;6183545;28;20273;-86
2023/01/06 06:00:04;;;;;;;1.87;1.80;;;;;;;;;;6198471;28;20288;-89
2023/01/06 06:03:16;;;;;;;2.00;1.90;;;;;;;;;;6207645;28;20302;-86
2023/01/06 06:06:23;;;;;;;2.23;2.03;;;;;;;;;;6221871;28;20314;-86
2023/01/06 06:09:31;;;;;;;1.57;1.57;;;;;;;;;;6222330;28;20272;-88
2023/01/06 06:12:37;;;;;;;2.10;1.93;;;;;;;;;;6222481;28;20329;-87
2023/01/06 06:15:45;;;;;;;1.97;1.87;;;;;;;;;;6217626;28;20238;-87
2023/01/06 06:18:53;;;;;;;2.30;2.10;;;;;;;;;;6206689;28;20590;-88
2023/01/06 06:22:01;;;;;;;2.63;1.77;;;;;;;;;;6206591;28;20279;-87
2023/01/06 06:25:08;;;;;;;2.00;2.00;;;;;;;;;;6193377;28;20283;-87
2023/01/06 06:28:14;;;;;;;2.30;2.10;;;;;;;;;;6222315;28;20277;-87
2023/01/06 06:31:31;;;;;;;3.27;2.10;;;;;;;;;;6206203;28;20273;-87
2023/01/06 06:34:37;;;;;;;2.13;2.03;;;;;;;;;;6237788;28;20275;-86
2023/01/06 06:37:44;;;;;;;2.30;2.20;;;;;;;;;;6221451;28;20277;-87
2023/01/06 06:40:50;;;;;;;3.40;1.93;;;;;;;;;;6226128;28;20276;-87
2023/01/06 06:43:55;;;;;;;1.90;1.80;;;;;;;;;;6231898;28;20283;-87
2023/01/06 06:47:03;;;;;;;2.23;2.00;;;;;;;;;;6189318;28;20291;-86
2023/01/06 06:50:14;;;;;;;1.97;1.87;;;;;;;;;;6205866;28;20289;-88
2023/01/06 06:53:20;;;;;;;2.30;2.20;;;;;;;;;;6237518;28;20272;-88
2023/01/06 06:56:26;;;;;;;1.87;1.87;;;;;;;;;;6204984;28;20546;-87
2023/01/06 06:59:35;;;;;;;2.33;2.13;;;;;;;;;;6221277;28;20281;-86
2023/01/06 07:02:42;;;;;;;2.07;1.93;;;;;;;;;;6204112;28;20303;-88
2023/01/06 07:05:49;;;;;;;2.17;2.17;;;;;;;;;;6189421;28;20296;-88
2023/01/06 07:08:58;;;;;;;2.20;1.93;;;;;;;;;;6221302;28;20273;-88
2023/01/06 07:12:07;;;;;;;2.57;2.37;;;;;;;;;;6215863;28;20439;-88
2023/01/06 07:15:14;;;;;;;2.23;1.97;;;;;;;;;;6221067;28;20262;-87
2023/01/06 07:18:21;;;;;;;1.97;1.97;;;;;;;;;;6190408;28;20452;-88
2023/01/06 07:21:27;;;;;;;2.77;2.07;;;;;;;;;;6213886;28;20281;-87
2023/01/06 07:24:35;;;;;;;3.87;2.23;;;;;;;;;;6253434;28;20244;-86
2023/01/06 07:27:40;;;;;;;2.53;2.27;;;;;;;;;;6205664;28;20297;-87
2023/01/06 07:30:47;;;;;;;2.20;2.10;;;;;;;;;;6204920;28;20276;-88
2023/01/06 07:33:56;;;;;;;2.00;2.00;;;;;;;;;;6236595;28;20272;-87
2023/01/06 07:37:02;;;;;;;1.70;1.70;;;;;;;;;;6219942;28;20550;-87
2023/01/06 07:40:10;;;;;;;2.10;2.00;;;;;;;;;;6222240;28;20273;-87
2023/01/06 07:43:15;;;;;;;1.97;1.87;;;;;;;;;;6188479;28;20273;-87
2023/01/06 07:46:22;;;;;;;2.23;2.20;;;;;;;;;;6220190;28;20488;-88
2023/01/06 07:49:31;;;;;;;1.87;1.73;;;;;;;;;;6204575;28;20281;-87
2023/01/06 07:52:37;;;;;;;1.80;1.80;;;;;;;;;;6200463;28;20276;-86
2023/01/06 07:55:43;;;;;;;3.47;2.10;;;;;;;;;;6204301;28;20282;-86
2023/01/06 07:58:50;;;;;;;1.90;1.80;;;;;;;;;;6204816;28;20279;-86
2023/01/06 08:01:55;;;;;;;1.93;1.80;;;;;;;;;;6205104;28;20274;-86
2023/01/06 08:05:04;;;;;;;2.30;1.70;;;;;;;;;;6217523;28;20353;-86
2023/01/06 08:08:12;;;;;;;1.67;1.63;;;;;;;;;;6221705;28;20292;-86
2023/01/06 08:11:20;;;;;;;2.20;1.77;;;;;;;;;;6236119;28;20266;-86
2023/01/06 08:14:25;;;;;;;1.97;1.80;;;;;;;;;;6219087;28;20473;-86
2023/01/06 08:17:34;;;;;;;1.97;1.87;;;;;;;;;;6204141;28;20270;-87
2023/01/06 08:20:42;;;;;;;1.80;1.80;;;;;;;;;;6204792;28;20553;-89
2023/01/06 08:23:48;;;;;;;2.23;2.13;;;;;;;;;;6205980;28;20285;-88
2023/01/06 08:26:54;;;;;;;1.30;1.30;;;;;;;;;;6222871;28;20290;-87
2023/01/06 08:30:04;;;;;;;2.30;2.03;;;;;;;;;;6210125;28;20537;-87
2023/01/06 08:33:14;;;;;;;1.90;1.80;;;;;;;;;;6219181;28;20260;-85
2023/01/06 08:36:24;;;;;;;2.27;2.07;;;;;;;;;;6214680;28;20268;-87
2023/01/06 08:39:31;;;;;;;3.03;2.07;;;;;;;;;;6224394;28;20280;-87
2023/01/06 08:42:38;;;;;;;1.77;1.77;;;;;;;;;;6208106;28;20276;-88
2023/01/06 08:45:44;;;;;;;1.97;1.87;;;;;;;;;;6224356;28;20480;-88
2023/01/06 08:48:50;;;;;;;2.03;2.00;;;;;;;;;;6224077;28;20599;-87
2023/01/06 08:51:58;;;;;;;2.00;1.90;;;;;;;;;;6241404;28;20257;-87
2023/01/06 08:55:05;;;;;;;1.83;1.37;;;;;;;;;;6208301;28;20454;-87
2023/01/06 08:58:21;;;;;;;2.10;2.00;;;;;;;;;;6192526;28;20456;-87
2023/01/06 09:01:30;;;;;;;2.17;1.93;;;;;;;;;;6191029;28;20279;-87
2023/01/06 09:04:37;;;;;;;2.77;2.07;;;;;;;;;;6194561;28;20312;-88
2023/01/06 09:07:45;;;;;;;5.57;1.67;;;;;;;;;;6215937;28;20288;-86
2023/01/06 09:10:51;;;;;;;1.63;1.63;;;;;;;;;;6196346;28;20289;-87
2023/01/06 09:13:57;;;;;;;4.47;2.20;;;;;;;;;;6197963;28;20272;-87
2023/01/06 09:17:03;;;;;;;1.87;1.77;;;;;;;;;;6199538;28;20289;-87
2023/01/06 09:20:12;;;;;;;1.30;1.30;;;;;;;;;;6152692;28;20272;-89
2023/01/06 09:23:20;;;;;;;1.60;1.60;;;;;;;;;;6177293;28;20277;-88
2023/01/06 09:26:26;;;;;;;1.60;1.50;;;;;;;;;;6210818;28;20272;-87
2023/01/06 09:29:32;;;;;;;2.40;1.97;;;;;;;;;;6205537;28;20314;-88
2023/01/06 09:32:39;;;;;;;1.90;1.80;;;;;;;;;;6200078;28;20570;-88
2023/01/06 09:35:46;;;;;;;1.67;1.67;;;;;;;;;;6200568;28;20285;-87
2023/01/06 09:38:54;;;;;;;1.40;1.40;;;;;;;;;;6216643;28;20268;-87
2023/01/06 09:42:18;;;;;;;1.60;1.60;;;;;;;;;;6186196;28;20267;-87
2023/01/06 09:45:33;;;;;;;1.67;1.67;;;;;;;;;;6209435;28;20268;-87
2023/01/06 09:48:41;;;;;;;2.00;1.90;;;;;;;;;;6214885;28;20581;-88
2023/01/06 09:51:48;;;;;;;2.00;1.80;;;;;;;;;;6216140;28;20281;-88
2023/01/06 09:54:59;;;;;;;2.17;1.77;;;;;;;;;;6198244;28;20275;-88
2023/01/06 09:58:09;;;;;;;2.37;1.80;;;;;;;;;;6167044;28;20276;-87
2023/01/06 10:01:18;;;;;;;2.03;1.87;;;;;;;;;;6215071;28;20275;-88
2023/01/06 10:04:30;;;;;;;3.40;1.73;;;;;;;;;;6197332;28;20309;-88
2023/01/06 10:07:42;;;;;;;2.03;1.90;;;;;;;;;;6198337;28;20292;-87
2023/01/06 10:10:58;;;;;;;2.40;2.23;;;;;;;;;;6195159;28;20273;-87
2023/01/06 10:14:12;;;;;;;3.00;1.90;;;;;;;;;;6181468;28;20303;-86
2023/01/06 10:17:57;;;;;;;2.00;1.90;;;;;;;;;;6198460;28;20280;-87
2023/01/06 10:21:10;;;;;;;1.93;1.63;;;;;;;;;;6208344;28;20532;-87
2023/01/06 10:24:34;;;;;;;2.07;1.97;;;;;;;;;;6197646;28;20276;-87
2023/01/06 10:27:49;;;;;;;2.67;2.00;;;;;;;;;;6213592;28;20281;-87
2023/01/06 10:30:58;;;;;;;2.23;2.03;;;;;;;;;;6182192;28;20577;-88
2023/01/06 10:34:04;;;;;;;6.47;1.67;;;;;;;;;;6181714;28;20280;-87
2023/01/06 10:37:15;;;;;;;5.63;1.93;;;;;;;;;;6197436;28;20560;-88
2023/01/06 10:40:25;;;;;;;2.13;2.03;;;;;;;;;;6213373;28;20281;-86
2023/01/06 10:43:32;;;;;;;3.70;1.93;;;;;;;;;;6214050;28;20560;-88
2023/01/06 10:46:40;;;;;;;1.67;1.67;;;;;;;;;;6183030;28;20268;-88
2023/01/06 10:49:46;;;;;;;1.90;1.90;;;;;;;;;;6210613;28;20292;-88
2023/01/06 10:52:54;;;;;;;1.90;1.90;;;;;;;;;;6222603;28;20265;-88
2023/01/06 10:56:06;;;;;;;5.03;2.37;;;;;;;;;;6205728;28;20484;-87
2023/01/06 10:59:14;;;;;;;1.67;1.67;;;;;;;;;;6200607;28;20276;-86
2023/01/06 11:02:25;;;;;;;2.20;2.10;;;;;;;;;;6197563;28;20280;-87
2023/01/06 11:05:34;;;;;;;2.23;2.13;;;;;;;;;;6205142;28;20299;-87
2023/01/06 11:08:42;;;;;;;5.20;2.17;;;;;;;;;;6236774;28;20299;-88
2023/01/06 11:11:50;;;;;;;2.30;2.10;;;;;;;;;;6173713;28;20272;-88
2023/01/06 11:15:02;;;;;;;2.37;2.13;;;;;;;;;;6220922;28;20274;-87
2023/01/06 11:18:20;;;;;;;2.17;1.90;;;;;;;;;;6236707;28;20284;-86
2023/01/06 11:21:40;;;;;;;2.30;2.20;;;;;;;;;;6220193;28;20555;-88
2023/01/06 11:24:52;;;;;;;2.50;2.40;;;;;;;;;;6220295;28;20272;-89
2023/01/06 11:28:18;;;;;;;2.13;2.03;;;;;;;;;;6239857;28;20439;-86
2023/01/06 11:31:29;;;;;;;3.97;2.53;;;;;;;;;;6236526;28;20271;-87
2023/01/06 11:34:37;;;;;;;2.33;2.33;;;;;;;;;;6220352;28;20281;-86
2023/01/06 11:37:44;;;;;;;2.60;2.50;;;;;;;;;;6220740;28;20275;-88
2023/01/06 11:40:53;;;;;;;2.30;2.20;;;;;;;;;;6236451;28;20542;-88
2023/01/06 11:44:09;;;;;;;4.83;3.17;;;;;;;;;;6219652;28;20284;-88
2023/01/06 11:47:18;;;;;;;1.77;1.77;;;;;;;;;;6236282;28;20275;-86
2023/01/06 11:50:27;;;;;;;5.17;2.60;;;;;;;;;;6222800;28;20295;-86
2023/01/06 11:53:33;;;;;;;2.37;2.27;;;;;;;;;;6190676;28;20275;-87
2023/01/06 11:56:39;;;;;;;2.53;2.33;;;;;;;;;;6221549;28;20271;-87
2023/01/06 12:00:14;;;;;;;5.83;3.10;;;;;;;;;;6237348;28;20272;-88
2023/01/06 12:03:30;;;;;;;1.90;1.90;;;;;;;;;;6228306;28;20311;-86
2023/01/06 12:06:39;;;;;;;3.00;2.70;;;;;;;;;;6184265;28;20280;-87
2023/01/06 12:09:48;;;;;;;5.63;3.40;;;;;;;;;;6215002;28;20287;-87
2023/01/06 12:12:54;;;;;;;4.13;2.60;;;;;;;;;;6224073;28;20231;-87
2023/01/06 12:16:04;;;;;;;3.90;2.97;;;;;;;;;;6196602;28;20278;-87
2023/01/06 12:19:18;;;;;;;1.33;1.33;;;;;;;;;;6196809;28;20291;-89
2023/01/06 12:22:36;;;;;;;5.53;2.33;;;;;;;;;;6195239;28;20278;-86
2023/01/06 12:25:44;;;;;;;2.77;2.57;;;;;;;;;;6214226;28;20272;-86
2023/01/06 12:29:01;;;;;;;2.90;2.73;;;;;;;;;;6196221;28;20596;-88
2023/01/06 12:32:14;;;;;;;2.07;2.07;;;;;;;;;;6211892;28;20275;-88
2023/01/06 12:35:28;;;;;;;4.43;2.83;;;;;;;;;;6212417;28;20283;-88
2023/01/06 12:38:42;;;;;;;2.13;2.00;;;;;;;;;;6180655;28;20276;-88
2023/01/06 12:41:51;;;;;;;2.40;2.20;;;;;;;;;;6183006;28;20272;-88
2023/01/06 12:45:05;;;;;;;2.40;2.10;;;;;;;;;;6181850;28;20280;-87
2023/01/06 12:48:18;;;;;;;1.60;1.60;;;;;;;;;;6196416;28;20284;-87
2023/01/06 12:51:31;;;;;;;2.73;1.83;;;;;;;;;;6197546;28;20284;-87
2023/01/06 12:54:40;;;;;;;3.53;1.90;;;;;;;;;;6179700;28;20292;-88
2023/01/06 12:57:52;;;;;;;2.93;1.97;;;;;;;;;;6211108;28;20276;-87
2023/01/06 13:01:01;;;;;;;1.67;1.67;;;;;;;;;;6194519;28;20279;-87
2023/01/06 13:04:34;;;;;;;3.97;1.90;;;;;;;;;;6194403;28;20309;-87
2023/01/06 13:07:48;;;;;;;2.97;1.70;;;;;;;;;;6206891;28;20502;-88
2023/01/06 13:11:03;;;;;;;1.70;1.70;;;;;;;;;;6210455;28;20285;-87
2023/01/06 13:14:17;;;;;;;2.27;2.00;;;;;;;;;;6227599;28;20277;-87
2023/01/06 13:17:28;;;;;;;2.27;2.17;;;;;;;;;;6184063;28;20572;-87
2023/01/06 13:20:39;;;;;;;4.33;1.50;;;;;;;;;;6215304;28;20296;-88
2023/01/06 13:24:10;;;;;;;1.50;1.50;;;;;;;;;;6199192;28;20280;-88
2023/01/06 13:27:27;;;;;;;2.57;1.97;;;;;;;;;;6182605;28;20284;-88
2023/01/06 13:31:02;;;;;;;2.17;2.07;;;;;;;;;;6182631;28;20551;-87
2023/01/06 13:34:46;;;;;;;1.90;1.83;;;;;;;;;;6228938;28;20262;-87
2023/01/06 13:38:14;;;;;;;2.30;1.40;;;;;;;;;;6175667;28;20282;-88
2023/01/06 13:41:26;;;;;;;2.03;1.93;;;;;;;;;;6212853;28;20283;-85
2023/01/06 13:44:33;;;;;;;1.70;1.60;;;;;;;;;;6214822;28;20280;-86
2023/01/06 13:47:39;;;;;;;1.77;1.67;;;;;;;;;;6182989;28;20276;-88
2023/01/06 13:50:47;;;;;;;1.63;1.53;;;;;;;;;;6198979;28;20292;-88
2023/01/06 13:57:47;;;;;;;1.37;1.37;;;;;;;;;;6220011;28;20284;-86
2023/01/06 14:01:08;;;;;;;2.23;1.97;;;;;;;;;;6187087;28;20272;-88
2023/01/06 14:04:47;;;;;;;1.60;1.50;;;;;;;;;;6200070;28;20308;-88
2023/01/06 14:07:56;;;;;;;2.40;2.30;;;;;;;;;;6233441;28;20435;-88
2023/01/06 14:11:06;;;;;;;4.83;1.77;;;;;;;;;;6233533;28;20282;-87
2023/01/06 14:14:27;;;;;;;1.40;1.20;;;;;;;;;;6216832;28;20458;-87
2023/01/06 14:17:43;;;;;;;4.37;2.30;;;;;;;;;;6216506;28;20298;-88
2023/01/06 14:21:01;;;;;;;1.77;1.77;;;;;;;;;;6233592;28;20272;-88
2023/01/06 14:24:23;;;;;;;2.37;2.27;;;;;;;;;;6197098;28;20276;-88
2023/01/06 14:28:06;;;;;;;2.23;1.80;;;;;;;;;;6228045;28;20281;-88
2023/01/06 14:31:40;;;;;;;1.97;1.87;;;;;;;;;;6200039;28;20300;-87
2023/01/06 14:34:55;;;;;;;3.13;1.57;;;;;;;;;;6185418;28;20287;-87
2023/01/06 14:38:03;;;;;;;3.33;2.10;;;;;;;;;;6183687;28;20279;-88
2023/01/06 14:41:23;;;;;;;2.20;2.10;;;;;;;;;;6216181;28;20279;-88
2023/01/06 14:44:43;;;;;;;1.93;1.80;;;;;;;;;;6199915;28;20278;-87
2023/01/06 14:47:55;;;;;;;2.17;2.13;;;;;;;;;;6214299;28;20280;-87
2023/01/06 14:51:13;;;;;;;2.97;2.30;;;;;;;;;;6184328;28;20300;-88
2023/01/06 14:54:29;;;;;;;1.90;1.80;;;;;;;;;;6211899;28;20468;-86
2023/01/06 14:57:37;;;;;;;2.60;2.37;;;;;;;;;;6194709;28;20274;-88
2023/01/06 15:00:47;;;;;;;2.13;1.97;;;;;;;;;;6213224;28;20271;-88
2023/01/06 15:03:58;;;;;;;1.73;1.67;;;;;;;;;;6169085;28;20299;-87
2023/01/06 15:07:20;;;;;;;3.70;1.90;;;;;;;;;;6217868;28;20275;-88
2023/01/06 15:10:29;;;;;;;2.17;1.83;;;;;;;;;;6199637;28;20275;-88
2023/01/06 15:14:06;;;;;;;1.77;1.77;;;;;;;;;;6190251;28;20268;-88
2023/01/06 15:24:20;;;;;;;2.87;1.80;;;;;;;;;;6161438;28;20287;-88
2023/01/06 15:27:26;;;;;;;3.30;1.63;;;;;;;;;;6174846;28;20579;-88
2023/01/06 15:30:35;;;;;;;2.73;2.10;;;;;;;;;;6159030;28;20280;-87
2023/01/06 15:33:43;;;;;;;3.60;1.90;;;;;;;;;;6202313;28;20253;-86
2023/01/06 15:36:50;;;;;;;1.97;1.60;;;;;;;;;;6177206;28;20281;-87
2023/01/06 15:43:43;;;;;;;2.93;2.23;;;;;;;;;;6189976;28;20285;-88
2023/01/06 15:46:50;;;;;;;6.50;2.00;;;;;;;;;;6190952;28;20285;-87
2023/01/06 15:50:05;;;;;;;7.00;1.07;;;;;;;;;;6175832;28;20273;-87
2023/01/06 15:53:30;;;;;;;2.07;1.37;;;;;;;;;;6175078;28;20304;-87
2023/01/06 15:56:43;;;;;;;1.87;1.77;;;;;;;;;;6173699;28;20279;-88
2023/01/06 16:00:10;;;;;;;1.93;1.70;;;;;;;;;;6176114;28;20276;-87
2023/01/06 16:03:19;;;;;;;2.60;1.70;;;;;;;;;;6174906;28;20301;-87
2023/01/06 16:06:30;;;;;;;1.87;1.77;;;;;;;;;;6159961;28;20458;-86
2023/01/06 16:09:54;;;;;;;1.97;1.90;;;;;;;;;;6169681;28;20285;-88
2023/01/06 16:13:27;;;;;;;2.17;2.13;;;;;;;;;;6196640;28;20284;-89
2023/01/06 16:16:38;;;;;;;2.13;1.90;;;;;;;;;;6199162;28;20276;-86
2023/01/06 16:19:49;;;;;;;1.77;1.77;;;;;;;;;;6179170;28;20232;-88
2023/01/06 16:22:59;;;;;;;2.30;2.20;;;;;;;;;;6215002;28;20264;-89
2023/01/06 16:26:35;;;;;;;2.20;2.10;;;;;;;;;;6178448;28;20581;-88
2023/01/06 16:30:23;;;;;;;2.03;1.93;;;;;;;;;;6214419;28;20396;-88
2023/01/06 16:34:03;;;;;;;2.50;1.80;;;;;;;;;;6212400;28;20281;-88
2023/01/06 16:37:14;;;;;;;2.40;2.00;;;;;;;;;;6213139;28;20280;-89
2023/01/06 16:40:22;;;;;;;2.20;2.10;;;;;;;;;;6195741;28;20281;-87
2023/01/06 16:43:34;;;;;;;3.80;2.13;;;;;;;;;;6193167;28;20241;-88
2023/01/06 16:46:44;;;;;;;1.90;1.80;;;;;;;;;;6184871;28;20281;-88
2023/01/06 16:49:50;;;;;;;1.70;1.70;;;;;;;;;;6216242;28;20284;-88
2023/01/06 16:53:17;;;;;;;2.63;1.73;;;;;;;;;;6188664;28;20284;-87
2023/01/06 16:56:26;;;;;;;1.93;1.90;;;;;;;;;;6205271;28;20277;-86
2023/01/06 16:59:37;;;;;;;1.50;1.50;;;;;;;;;;6202923;28;20589;-89
2023/01/06 17:03:14;;;;;;;1.73;1.73;;;;;;;;;;6203917;28;20279;-88
2023/01/06 17:06:25;;;;;;;2.10;2.00;;;;;;;;;;6243847;28;20273;-88
2023/01/06 17:09:35;;;;;;;4.20;1.77;;;;;;;;;;6227963;28;20275;-87
2023/01/06 17:16:20;;;;;;;1.97;1.87;;;;;;;;;;6225127;28;20272;-87
2023/01/06 17:19:32;;;;;;;2.30;1.70;;;;;;;;;;6242457;28;20592;-87
2023/01/06 17:22:41;;;;;;;2.50;2.30;;;;;;;;;;6242471;28;20559;-87
2023/01/06 17:26:06;;;;;;;2.17;1.97;;;;;;;;;;6213782;28;20279;-89
2023/01/06 17:29:17;;;;;;;2.03;2.00;;;;;;;;;;6218634;28;20448;-89
2023/01/06 17:32:27;;;;;;;2.40;2.20;;;;;;;;;;6242966;28;20295;-86
2023/01/06 17:35:49;;;;;;;2.80;2.70;;;;;;;;;;6196385;28;20286;-86
2023/01/06 17:39:02;;;;;;;5.80;2.00;;;;;;;;;;6228280;28;20264;-86
2023/01/06 17:42:26;;;;;;;3.83;2.23;;;;;;;;;;6223595;28;20541;-90
2023/01/06 17:45:41;;;;;;;3.13;2.07;;;;;;;;;;6226493;28;20588;-88
2023/01/06 17:48:56;;;;;;;4.33;2.57;;;;;;;;;;6243047;28;20277;-88
2023/01/06 17:52:23;;;;;;;4.00;2.10;;;;;;;;;;6217909;28;20283;-88
2023/01/06 17:55:44;;;;;;;1.70;1.60;;;;;;;;;;6233772;28;20274;-87
2023/01/06 17:58:51;;;;;;;4.77;2.57;;;;;;;;;;6225400;28;20288;-88
2023/01/06 18:01:59;;;;;;;2.33;2.13;;;;;;;;;;6225013;28;20295;-87
2023/01/06 18:05:52;;;;;;;2.20;2.10;;;;;;;;;;6240952;28;20302;-87
2023/01/06 18:09:20;;;;;;;2.60;2.40;;;;;;;;;;6241531;28;20275;-88
2023/01/06 18:12:28;;;;;;;2.53;2.37;;;;;;;;;;6224924;28;20557;-89
2023/01/06 18:15:54;;;;;;;3.30;2.50;;;;;;;;;;6241849;28;20264;-87
2023/01/06 18:19:34;;;;;;;3.93;2.47;;;;;;;;;;6210355;28;20276;-88
2023/01/06 18:22:40;;;;;;;7.20;2.50;;;;;;;;;;6226002;28;20278;-87
2023/01/06 18:25:50;;;;;;;2.77;2.13;;;;;;;;;;6211161;28;20268;-88
2023/01/06 18:28:59;;;;;;;4.43;2.63;;;;;;;;;;6224878;28;20280;-89
2023/01/06 18:32:27;;;;;;;3.30;2.73;;;;;;;;;;6240239;28;20272;-88
2023/01/06 18:35:33;;;;;;;2.40;2.30;;;;;;;;;;6207691;28;20279;-88
2023/01/06 18:38:40;;;;;;;3.40;2.50;;;;;;;;;;6240326;28;20269;-89
2023/01/06 18:41:47;;;;;;;3.83;2.20;;;;;;;;;;6224108;28;20275;-88
2023/01/06 18:45:02;;;;;;;4.20;2.60;;;;;;;;;;6222839;28;20264;-88
2023/01/06 18:48:15;;;;;;;2.00;2.00;;;;;;;;;;6222246;28;20280;-87
2023/01/06 18:51:22;;;;;;;1.57;1.57;;;;;;;;;;6238540;28;20267;-88
2023/01/06 18:54:28;;;;;;;3.03;2.57;;;;;;;;;;6237437;28;20300;-90
2023/01/06 18:57:35;;;;;;;2.50;2.30;;;;;;;;;;6238523;28;20268;-89
2023/01/06 19:00:44;;;;;;;2.63;2.50;;;;;;;;;;6231676;28;20264;-88
2023/01/06 19:03:58;;;;;;;3.00;2.80;;;;;;;;;;6230813;28;20248;-88
2023/01/06 19:07:09;;;;;;;2.10;1.83;;;;;;;;;;6200606;28;20273;-90
2023/01/06 19:10:26;;;;;;;2.70;2.50;;;;;;;;;;6213591;28;20355;-89
2023/01/06 19:13:33;;;;;;;2.50;1.93;;;;;;;;;;6197660;28;20603;-88
2023/01/06 19:16:49;;;;;;;3.23;2.93;;;;;;;;;;6218149;28;20289;-89
2023/01/06 19:19:56;;;;;;;5.73;2.97;;;;;;;;;;6215033;28;20467;-88
2023/01/06 19:23:11;;;;;;;2.90;2.63;;;;;;;;;;6197080;28;20269;-89
2023/01/06 19:26:24;;;;;;;2.47;2.27;;;;;;;;;;6180792;28;20276;-89
2023/01/06 19:29:33;;;;;;;5.50;2.90;;;;;;;;;;6211657;28;20298;-88